createdAt,value
2022-09-07T00:01:02.178Z,4.20
2022-09-07T00:03:41.101Z,3.85
2022-09-07T00:06:10.193Z,3.83
2022-09-07T00:08:37.829Z,4.28
2022-09-07T00:11:08.154Z,3.92
2022-09-07T00:13:39.351Z,4.60
2022-09-07T00:16:09.079Z,3.90
2022-09-07T00:18:36.731Z,4.32
2022-09-07T00:21:09.330Z,4.00
2022-09-07T00:23:37.764Z,3.80
2022-09-07T00:26:07.579Z,3.97
2022-09-07T00:28:35.164Z,3.65
2022-09-07T00:31:02.273Z,3.30
2022-09-07T00:33:29.562Z,3.67
2022-09-07T00:36:06.688Z,3.30
2022-09-07T00:38:56.359Z,3.00
2022-09-07T00:41:23.492Z,3.00
2022-09-07T00:43:56.049Z,3.33
2022-09-07T00:46:28.029Z,3.00
2022-09-07T00:49:03.011Z,3.15
2022-09-07T00:51:39.578Z,3.03
2022-09-07T00:54:12.147Z,3.47
2022-09-07T00:56:42.022Z,3.00
2022-09-07T00:59:10.725Z,2.83
2022-09-07T01:01:39.059Z,2.88
2022-09-07T01:04:06.618Z,2.90
2022-09-07T01:06:35.986Z,3.08
2022-09-07T01:09:07.007Z,4.28
2022-09-07T01:11:35.312Z,3.63
2022-09-07T01:14:04.529Z,2.80
2022-09-07T01:16:54.305Z,2.93
2022-09-07T01:19:26.901Z,3.45
2022-09-07T01:22:27.546Z,3.42
2022-09-07T01:25:10.872Z,3.50
2022-09-07T01:28:02.329Z,3.78
2022-09-07T01:30:32.021Z,3.10
2022-09-07T01:33:07.211Z,3.47
2022-09-07T01:36:04.469Z,2.90
2022-09-07T01:38:52.422Z,2.67
2022-09-07T01:41:52.399Z,2.20
2022-09-07T01:44:39.617Z,2.20
2022-09-07T01:47:21.260Z,2.30
2022-09-07T01:49:58.959Z,2.42
2022-09-07T01:52:44.170Z,2.47
2022-09-07T01:55:38.247Z,3.05
2022-09-07T01:58:30.906Z,2.77
2022-09-07T02:01:07.909Z,2.17
2022-09-07T02:03:46.479Z,2.42
2022-09-07T02:06:15.819Z,2.65
2022-09-07T02:09:03.277Z,2.60
2022-09-07T02:11:39.305Z,2.23
2022-09-07T02:14:29.142Z,2.38
2022-09-07T02:17:14.508Z,2.63
2022-09-07T02:19:44.880Z,2.83
2022-09-07T02:22:18.498Z,2.35
2022-09-07T02:24:51.190Z,2.60
2022-09-07T02:27:24.510Z,2.30
2022-09-07T02:29:52.334Z,2.80
2022-09-07T02:32:18.969Z,2.60
2022-09-07T02:34:46.263Z,2.42
2022-09-07T02:37:14.806Z,2.50
2022-09-07T02:39:41.533Z,2.78
2022-09-07T02:42:09.458Z,2.50
2022-09-07T02:44:38.859Z,2.55
2022-09-07T02:47:27.166Z,2.10
2022-09-07T02:50:23.663Z,2.60
2022-09-07T02:53:19.692Z,2.40
2022-09-07T02:55:59.192Z,2.45
2022-09-07T02:58:44.468Z,2.20
2022-09-07T03:01:29.259Z,2.30
2022-09-07T03:04:23.869Z,2.10
2022-09-07T03:07:14.047Z,2.38
2022-09-07T03:13:09.789Z,2.08
2022-09-07T03:16:05.509Z,3.10
2022-09-07T03:18:32.287Z,2.50
2022-09-07T03:20:59.139Z,2.65
2022-09-07T03:23:25.737Z,2.40
2022-09-07T03:25:52.702Z,2.50
2022-09-07T03:28:19.279Z,2.40
2022-09-07T03:30:47.447Z,2.17
2022-09-07T03:33:17.486Z,2.97
2022-09-07T03:35:45.161Z,2.35
2022-09-07T03:38:11.971Z,2.38
2022-09-07T03:40:38.961Z,2.70
2022-09-07T03:43:05.543Z,2.57
2022-09-07T03:45:32.216Z,3.38
2022-09-07T03:47:58.879Z,3.20
2022-09-07T03:50:25.544Z,2.83
2022-09-07T03:52:52.123Z,2.70
2022-09-07T03:55:18.715Z,2.90
2022-09-07T03:57:45.334Z,2.60
2022-09-07T04:00:12.560Z,2.78
2022-09-07T04:02:39.474Z,2.70
2022-09-07T04:05:06.371Z,2.92
2022-09-07T04:07:33.050Z,3.00
2022-09-07T04:09:59.931Z,2.30
2022-09-07T04:13:42.562Z,2.45
2022-09-07T04:24:07.037Z,2.50
2022-09-07T04:26:35.501Z,2.75
2022-09-07T04:29:03.047Z,2.83
2022-09-07T04:31:30.094Z,3.42
2022-09-07T04:33:56.772Z,2.35
2022-09-07T04:36:24.706Z,2.77
2022-09-07T04:38:56.052Z,3.00
2022-09-07T04:41:23.256Z,2.65
2022-09-07T04:44:02.132Z,3.30
2022-09-07T04:46:36.421Z,3.13
2022-09-07T04:49:09.225Z,3.53
2022-09-07T04:51:37.627Z,3.40
2022-09-07T04:54:04.684Z,3.17
2022-09-07T04:56:32.380Z,3.40
2022-09-07T04:59:00.517Z,3.30
2022-09-07T05:01:27.226Z,3.00
2022-09-07T05:03:54.376Z,2.88
2022-09-07T05:06:22.294Z,2.72
2022-09-07T05:08:51.452Z,3.55
2022-09-07T05:11:19.497Z,3.33
2022-09-07T05:13:46.303Z,3.20
2022-09-07T05:16:23.293Z,3.45
2022-09-07T05:18:52.280Z,3.20
2022-09-07T05:21:21.791Z,3.50
2022-09-07T05:23:53.751Z,2.90
2022-09-07T05:26:22.228Z,3.03
2022-09-07T05:28:50.379Z,3.20
2022-09-07T05:31:19.780Z,3.33
2022-09-07T05:36:35.816Z,3.85
2022-09-07T05:39:02.992Z,3.70
2022-09-07T05:41:29.780Z,3.50
2022-09-07T05:46:43.746Z,3.67
2022-09-07T05:49:10.464Z,3.95
2022-09-07T05:51:37.294Z,3.33
2022-09-07T05:54:04.186Z,4.00
2022-09-07T05:56:33.234Z,3.60
2022-09-07T05:58:59.825Z,4.20
2022-09-07T06:01:26.412Z,4.55
2022-09-07T06:03:53.096Z,4.67
2022-09-07T06:06:19.737Z,4.82
2022-09-07T06:08:50.051Z,5.45
2022-09-07T06:11:19.480Z,5.25
2022-09-07T06:13:46.208Z,4.78
2022-09-07T06:16:14.236Z,4.57
2022-09-07T06:18:43.164Z,4.88
2022-09-07T06:21:18.283Z,5.25
2022-09-07T06:23:45.600Z,5.60
2022-09-07T06:26:13.536Z,4.95
2022-09-07T06:28:42.428Z,4.40
2022-09-07T06:31:13.044Z,4.82
2022-09-07T06:33:41.175Z,4.68
2022-09-07T06:36:15.031Z,5.10
2022-09-07T06:38:42.320Z,5.13
2022-09-07T06:44:01.483Z,6.15
2022-09-07T06:49:14.838Z,6.30
2022-09-07T06:51:41.562Z,6.90
2022-09-07T06:56:55.977Z,8.00
2022-09-07T06:59:22.552Z,7.57
2022-09-07T07:01:49.178Z,8.02
2022-09-07T07:04:15.884Z,8.98
2022-09-07T07:06:42.524Z,8.37
2022-09-07T07:09:12.839Z,8.50
2022-09-07T07:11:39.462Z,9.15
2022-09-07T07:14:06.106Z,8.43
2022-09-07T07:16:32.967Z,9.80
2022-09-07T07:18:59.625Z,9.37
2022-09-07T07:21:28.979Z,9.10
2022-09-07T07:24:05.011Z,10.18
2022-09-07T07:26:34.606Z,9.43
2022-09-07T07:29:02.846Z,9.73
2022-09-07T07:31:32.554Z,9.80
2022-09-07T07:34:03.693Z,10.65
2022-09-07T07:36:30.816Z,9.70
2022-09-07T07:44:17.796Z,9.90
2022-09-07T07:46:48.042Z,10.60
2022-09-07T07:49:14.707Z,10.93
2022-09-07T07:54:27.823Z,11.32
2022-09-07T07:56:54.370Z,12.67
2022-09-07T07:59:21.064Z,12.88
2022-09-07T08:01:47.727Z,12.75
2022-09-07T08:04:14.413Z,13.55
2022-09-07T08:06:44.357Z,11.70
2022-09-07T08:09:13.778Z,13.30
2022-09-07T08:11:40.481Z,12.43
2022-09-07T08:14:08.467Z,13.23
2022-09-07T08:16:36.148Z,13.60
2022-09-07T08:19:03.007Z,13.10
2022-09-07T08:21:29.771Z,13.23
2022-09-07T08:23:56.440Z,12.43
2022-09-07T08:26:22.977Z,13.77
2022-09-07T08:28:49.510Z,13.85
2022-09-07T08:31:17.125Z,14.27
2022-09-07T08:33:44.581Z,14.60
2022-09-07T08:36:16.822Z,13.70
2022-09-07T08:38:43.465Z,13.02
2022-09-07T08:41:26.767Z,14.70
2022-09-07T08:43:58.663Z,12.70
2022-09-07T08:46:28.371Z,13.73
2022-09-07T08:48:58.699Z,13.82
2022-09-07T08:51:38.747Z,13.50
2022-09-07T08:54:05.967Z,12.70
2022-09-07T08:57:20.563Z,13.00
2022-09-07T08:59:42.802Z,13.03
2022-09-07T09:02:32.679Z,12.55
2022-09-07T09:05:17.843Z,13.38
2022-09-07T09:08:01.160Z,13.80
2022-09-07T09:11:09.456Z,13.73
2022-09-07T09:13:52.177Z,12.80
2022-09-07T09:16:45.716Z,13.35
2022-09-07T09:19:50.017Z,13.00
2022-09-07T09:22:23.103Z,12.25
2022-09-07T09:24:59.134Z,13.20
2022-09-07T09:27:25.879Z,12.97
2022-09-07T09:29:52.443Z,11.90
2022-09-07T09:32:39.816Z,11.90
2022-09-07T09:35:20.407Z,10.90
2022-09-07T09:37:47.008Z,10.32
2022-09-07T09:40:26.608Z,9.50
2022-09-07T09:43:18.402Z,9.32
2022-09-07T09:48:40.333Z,8.90
2022-09-07T09:54:27.093Z,7.85
2022-09-07T09:56:53.728Z,7.47
2022-09-07T10:05:43.102Z,8.68
2022-09-07T10:08:20.371Z,7.80
2022-09-07T10:10:55.767Z,7.55
2022-09-07T10:13:31.751Z,8.77
2022-09-07T10:16:01.390Z,9.10
2022-09-07T10:18:40.446Z,8.57
2022-09-07T10:21:28.227Z,8.77
2022-09-07T10:24:07.430Z,8.02
2022-09-07T10:26:39.074Z,7.07
2022-09-07T10:29:28.635Z,6.18
2022-09-07T10:32:06.111Z,5.80
2022-09-07T10:34:38.611Z,5.97
2022-09-07T10:37:18.973Z,5.07
2022-09-07T10:40:27.493Z,5.82
2022-09-07T10:46:08.388Z,4.30
2022-09-07T10:48:55.993Z,4.70
2022-09-07T10:51:40.572Z,5.70
2022-09-07T10:54:31.893Z,5.70
2022-09-07T10:57:28.286Z,5.22
2022-09-07T11:00:13.367Z,4.65
2022-09-07T11:03:26.910Z,4.28
2022-09-07T11:06:26.975Z,4.18
2022-09-07T11:09:18.720Z,3.78
2022-09-07T11:12:13.477Z,4.20
2022-09-07T11:14:50.076Z,5.30
2022-09-07T11:17:24.549Z,4.20
2022-09-07T11:20:02.889Z,4.00
2022-09-07T11:22:39.120Z,4.18
2022-09-07T11:25:32.837Z,3.85
2022-09-07T11:28:12.891Z,3.17
2022-09-07T11:31:01.622Z,3.20
2022-09-07T11:36:53.657Z,3.33
2022-09-07T11:39:26.663Z,3.83
2022-09-07T11:42:01.794Z,3.17
2022-09-07T11:45:08.918Z,4.05
2022-09-07T11:47:47.347Z,3.67
2022-09-07T11:50:20.979Z,3.50
2022-09-07T11:53:19.371Z,4.05
2022-09-07T11:55:50.375Z,3.95
2022-09-07T11:58:44.750Z,3.67
2022-09-07T12:01:27.579Z,3.55
2022-09-07T12:04:24.798Z,3.00
2022-09-07T12:07:28.214Z,3.10
2022-09-07T12:10:20.043Z,2.97
2022-09-07T12:13:02.221Z,2.80
2022-09-07T12:16:04.840Z,3.60
2022-09-07T12:18:52.921Z,3.03
2022-09-07T12:21:44.925Z,2.63
2022-09-07T12:24:48.795Z,2.78
2022-09-07T12:27:21.515Z,2.88
2022-09-07T12:30:02.790Z,2.78
2022-09-07T12:32:56.490Z,2.58
2022-09-07T12:35:30.145Z,3.05
2022-09-07T12:37:58.507Z,2.85
2022-09-07T12:40:28.543Z,3.03
2022-09-07T12:43:13.479Z,3.08
2022-09-07T12:45:40.046Z,3.22
2022-09-07T12:48:15.777Z,3.83
2022-09-07T12:54:42.155Z,3.35
2022-09-07T12:57:35.445Z,4.07
2022-09-07T13:00:11.667Z,3.35
2022-09-07T13:09:37.864Z,2.97
2022-09-07T13:15:58.016Z,3.60
2022-09-07T13:18:27.346Z,3.38
2022-09-07T13:21:08.999Z,3.30
2022-09-07T13:23:40.885Z,2.95
2022-09-07T13:26:11.652Z,3.13
2022-09-07T13:28:55.999Z,3.10
2022-09-07T13:31:43.655Z,3.13
2022-09-07T13:34:32.176Z,3.63
2022-09-07T13:36:59.877Z,2.83
2022-09-07T13:39:27.840Z,4.05
2022-09-07T13:41:59.074Z,2.80
2022-09-07T13:44:31.748Z,3.17
2022-09-07T13:47:08.600Z,2.75
2022-09-07T13:49:42.400Z,3.70
2022-09-07T13:52:27.096Z,3.30
2022-09-07T13:55:01.736Z,2.33
2022-09-07T13:57:53.944Z,2.45
2022-09-07T14:00:20.588Z,3.42
2022-09-07T14:02:56.578Z,2.47
2022-09-07T14:05:24.021Z,3.33
2022-09-07T14:07:50.608Z,2.97
2022-09-07T14:10:21.764Z,3.30
2022-09-07T14:12:55.207Z,2.85
2022-09-07T14:15:27.740Z,2.90
2022-09-07T14:18:10.677Z,2.75
2022-09-07T14:20:40.991Z,2.42
2022-09-07T14:23:29.904Z,2.83
2022-09-07T14:26:20.125Z,3.05
2022-09-07T14:28:49.667Z,3.17
2022-09-07T14:31:19.580Z,3.55
2022-09-07T14:33:57.579Z,2.17
2022-09-07T14:36:45.256Z,3.30
2022-09-07T14:39:15.585Z,3.35
2022-09-07T14:41:43.380Z,3.00
2022-09-07T14:44:40.354Z,3.28
2022-09-07T14:47:23.509Z,2.67
2022-09-07T14:49:55.917Z,2.60
2022-09-07T14:52:36.778Z,2.55
2022-09-07T14:55:36.923Z,2.80
2022-09-07T14:58:15.368Z,2.45
2022-09-07T15:01:36.814Z,2.30
2022-09-07T15:03:38.214Z,2.42
2022-09-07T15:06:06.301Z,2.28
2022-09-07T15:08:49.241Z,3.55
2022-09-07T15:11:34.037Z,3.10
2022-09-07T15:14:10.750Z,2.50
2022-09-07T15:16:42.521Z,3.22
2022-09-07T15:19:15.367Z,3.55
2022-09-07T15:21:43.164Z,3.10
2022-09-07T15:24:10.453Z,2.55
2022-09-07T15:29:29.063Z,2.40
2022-09-07T15:32:03.235Z,2.63
2022-09-07T15:34:32.069Z,2.63
2022-09-07T15:37:00.214Z,2.88
2022-09-07T15:39:29.880Z,2.58
2022-09-07T15:41:57.839Z,2.83
2022-09-07T15:44:28.054Z,2.75
2022-09-07T15:49:47.664Z,2.88
2022-09-07T15:52:17.674Z,3.50
2022-09-07T15:54:44.519Z,2.70
2022-09-07T15:59:57.916Z,2.55
2022-09-07T16:05:11.168Z,2.63
2022-09-07T16:10:25.400Z,2.72
2022-09-07T16:15:45.076Z,2.67
2022-09-07T16:18:16.466Z,3.28
2022-09-07T16:20:44.613Z,3.63
2022-09-07T16:23:14.262Z,3.50
2022-09-07T16:25:43.174Z,3.75
2022-09-07T16:28:10.635Z,2.92
2022-09-07T16:30:41.535Z,3.28
2022-09-07T16:33:08.384Z,2.78
2022-09-07T16:35:35.109Z,2.75
2022-09-07T16:40:50.084Z,2.65
2022-09-07T16:43:17.203Z,2.22
2022-09-07T16:48:35.712Z,2.30
2022-09-07T16:51:04.593Z,2.25
2022-09-07T16:53:33.467Z,2.47
2022-09-07T16:56:20.695Z,2.35
2022-09-07T16:58:49.814Z,2.65
2022-09-07T17:01:19.554Z,2.30
2022-09-07T17:03:46.712Z,2.28
2022-09-07T17:06:14.577Z,2.55
2022-09-07T17:08:41.995Z,2.80
2022-09-07T17:11:20.723Z,2.30
2022-09-07T17:13:47.964Z,2.10
2022-09-07T17:16:17.597Z,2.35
2022-09-07T17:21:33.523Z,2.33
2022-09-07T17:24:00.671Z,2.67
2022-09-07T17:26:27.583Z,2.47
2022-09-07T17:29:00.119Z,2.47
2022-09-07T17:34:22.331Z,2.65
2022-09-07T17:36:48.892Z,2.50
2022-09-07T17:39:17.751Z,2.08
2022-09-07T17:41:45.983Z,2.67
2022-09-07T17:44:12.655Z,2.33
2022-09-07T17:46:39.435Z,2.38
2022-09-07T17:49:09.988Z,2.65
2022-09-07T17:51:37.022Z,1.83
2022-09-07T17:54:12.947Z,2.03
2022-09-07T17:56:40.760Z,2.08
2022-09-07T18:01:54.907Z,2.47
2022-09-07T18:04:22.078Z,2.47
2022-09-07T18:06:48.833Z,2.13
2022-09-07T18:09:15.702Z,2.15
2022-09-07T18:11:45.870Z,2.45
2022-09-07T18:14:14.404Z,2.22
2022-09-07T18:16:42.255Z,2.40
2022-09-07T18:19:08.898Z,2.20
2022-09-07T18:21:37.716Z,2.25
2022-09-07T18:24:13.620Z,2.28
2022-09-07T18:26:40.777Z,2.45
2022-09-07T18:29:26.047Z,2.13
2022-09-07T18:31:54.961Z,1.98
2022-09-07T18:34:21.647Z,1.95
2022-09-07T18:36:48.406Z,2.10
2022-09-07T18:39:15.042Z,2.10
2022-09-07T18:41:42.036Z,1.90
2022-09-07T18:46:55.525Z,2.45
2022-09-07T18:49:22.129Z,1.63
2022-09-07T18:54:35.206Z,2.10
2022-09-07T18:57:01.761Z,2.10
2022-09-07T18:59:29.775Z,1.73
2022-09-07T19:02:02.924Z,1.92
2022-09-07T19:05:49.738Z,2.00
2022-09-07T19:07:16.884Z,1.80
2022-09-07T19:09:43.494Z,1.98
2022-09-07T19:12:10.125Z,2.15
2022-09-07T19:14:36.790Z,1.95
2022-09-07T19:17:03.491Z,2.13
2022-09-07T19:19:30.180Z,2.45
2022-09-07T19:21:58.188Z,2.25
2022-09-07T19:24:25.641Z,1.88
2022-09-07T19:26:55.737Z,2.10
2022-09-07T19:29:25.084Z,2.40
2022-09-07T19:32:05.372Z,2.17
2022-09-07T19:34:37.289Z,2.33
2022-09-07T19:37:05.740Z,2.03
2022-09-07T19:39:32.451Z,2.17
2022-09-07T19:41:59.561Z,1.92
2022-09-07T19:44:26.225Z,1.98
2022-09-07T19:46:52.861Z,1.90
2022-09-07T19:49:19.669Z,2.35
2022-09-07T19:51:49.263Z,2.45
2022-09-07T19:54:15.839Z,2.28
2022-09-07T19:56:44.624Z,2.08
2022-09-07T19:59:11.859Z,2.17
2022-09-07T20:01:40.436Z,1.90
2022-09-07T20:04:10.537Z,2.30
2022-09-07T20:06:38.744Z,2.45
2022-09-07T20:09:06.179Z,2.30
2022-09-07T20:11:34.727Z,2.22
2022-09-07T20:14:01.304Z,2.25
2022-09-07T20:16:28.356Z,2.33
2022-09-07T20:18:55.146Z,2.13
2022-09-07T20:21:23.121Z,1.83
2022-09-07T20:23:50.476Z,2.22
2022-09-07T20:26:19.438Z,2.30
2022-09-07T20:28:46.137Z,2.47
2022-09-07T20:31:14.971Z,2.40
2022-09-07T20:33:43.231Z,2.78
2022-09-07T20:36:12.686Z,1.88
2022-09-07T20:38:51.006Z,2.33
2022-09-07T20:41:19.694Z,2.13
2022-09-07T20:43:50.647Z,2.47
2022-09-07T20:46:17.910Z,2.17
2022-09-07T20:48:44.717Z,2.35
2022-09-07T20:51:20.857Z,2.35
2022-09-07T20:53:49.168Z,2.75
2022-09-07T20:56:18.422Z,2.33
2022-09-07T20:58:46.544Z,2.20
2022-09-07T21:01:15.389Z,2.58
2022-09-07T21:03:49.196Z,2.50
2022-09-07T21:06:16.990Z,2.38
2022-09-07T21:08:44.981Z,2.10
2022-09-07T21:11:15.142Z,2.60
2022-09-07T21:13:42.678Z,2.60
2022-09-07T21:16:12.535Z,2.53
2022-09-07T21:18:39.924Z,2.60
2022-09-07T21:21:22.152Z,2.88
2022-09-07T21:24:00.680Z,2.85
2022-09-07T21:26:28.799Z,2.65
2022-09-07T21:28:57.712Z,2.67
2022-09-07T21:31:25.421Z,3.10
2022-09-07T21:33:56.793Z,2.58
2022-09-07T21:36:24.324Z,3.17
2022-09-07T21:38:51.686Z,3.03
2022-09-07T21:41:19.930Z,3.22
2022-09-07T21:43:47.236Z,3.20
2022-09-07T21:46:18.596Z,4.47
2022-09-07T21:48:46.371Z,4.80
2022-09-07T21:51:14.075Z,5.00
2022-09-07T21:53:41.535Z,6.68
2022-09-07T21:56:11.595Z,10.23
2022-09-07T21:58:40.098Z,9.40
2022-09-07T22:01:17.288Z,11.18
2022-09-07T22:03:45.563Z,10.00
2022-09-07T22:06:12.856Z,10.43
2022-09-07T22:08:42.071Z,12.43
2022-09-07T22:11:12.612Z,11.43
2022-09-07T22:13:40.806Z,10.40
2022-09-07T22:16:08.378Z,10.17
2022-09-07T22:18:37.147Z,10.52
2022-09-07T22:21:18.720Z,10.57
2022-09-07T22:23:48.628Z,10.07
2022-09-07T22:26:18.210Z,10.15
2022-09-07T22:28:45.036Z,9.70
2022-09-07T22:31:21.279Z,10.18
2022-09-07T22:33:51.283Z,9.10
2022-09-07T22:36:22.646Z,10.02
2022-09-07T22:38:52.896Z,8.98
2022-09-07T22:41:27.155Z,9.47
2022-09-07T22:43:54.453Z,9.13
2022-09-07T22:46:25.578Z,9.70
2022-09-07T22:48:57.993Z,9.63
2022-09-07T22:51:26.865Z,10.05
2022-09-07T22:53:58.644Z,9.67
2022-09-07T22:56:30.106Z,9.18
2022-09-07T22:59:00.889Z,8.60
2022-09-07T23:01:30.158Z,10.20
2022-09-07T23:04:00.251Z,9.75
2022-09-07T23:06:30.802Z,10.18
2022-09-07T23:09:00.853Z,9.55
2022-09-07T23:11:31.067Z,10.38
2022-09-07T23:14:00.413Z,10.43
2022-09-07T23:16:28.467Z,10.20
2022-09-07T23:18:58.767Z,11.10
2022-09-07T23:21:26.545Z,10.48
2022-09-07T23:23:56.780Z,11.07
2022-09-07T23:26:27.787Z,8.95
2022-09-07T23:28:57.012Z,10.50
2022-09-07T23:31:24.807Z,9.27
2022-09-07T23:33:51.748Z,8.60
2022-09-07T23:36:19.162Z,8.55
2022-09-07T23:38:46.388Z,9.77
2022-09-07T23:41:19.372Z,8.43
2022-09-07T23:43:46.020Z,8.30
2022-09-07T23:46:14.069Z,7.75
2022-09-07T23:48:42.774Z,7.97
2022-09-07T23:51:11.985Z,7.13
2022-09-07T23:53:39.416Z,7.07
2022-09-07T23:56:06.737Z,6.68
2022-09-07T23:58:34.383Z,6.72
